createdAt,value
2018-10-01T00:00:47.148Z,0.00
2018-10-01T00:01:47.142Z,0.00
2018-10-01T00:02:47.132Z,0.00
2018-10-01T00:03:47.112Z,0.00
2018-10-01T00:04:47.131Z,0.00
2018-10-01T00:05:47.095Z,0.00
2018-10-01T00:06:47.077Z,0.00
2018-10-01T00:07:47.074Z,0.00
2018-10-01T00:08:47.084Z,0.00
2018-10-01T00:09:47.060Z,0.00
2018-10-01T00:10:47.038Z,0.00
2018-10-01T00:11:47.023Z,0.00
2018-10-01T00:12:47.008Z,0.00
2018-10-01T00:13:47.006Z,0.00
2018-10-01T00:14:47.011Z,0.00
2018-10-01T00:15:46.981Z,0.00
2018-10-01T00:16:46.972Z,0.00
2018-10-01T00:17:46.952Z,0.00
2018-10-01T00:18:46.938Z,0.00
2018-10-01T00:19:46.954Z,0.00
2018-10-01T00:20:46.922Z,0.00
2018-10-01T00:21:46.907Z,0.00
2018-10-01T00:22:46.901Z,0.00
2018-10-01T00:23:46.881Z,0.00
2018-10-01T00:24:46.894Z,0.00
2018-10-01T00:25:46.859Z,0.00
2018-10-01T00:26:46.847Z,0.00
2018-10-01T00:27:46.839Z,0.00
2018-10-01T00:28:46.822Z,0.00
2018-10-01T00:29:46.840Z,0.00
2018-10-01T00:30:46.798Z,0.00
2018-10-01T00:31:46.792Z,0.00
2018-10-01T00:32:46.772Z,0.00
2018-10-01T00:33:46.769Z,0.00
2018-10-01T00:34:46.777Z,0.00
2018-10-01T00:35:46.751Z,0.00
2018-10-01T00:36:46.742Z,0.00
2018-10-01T00:37:46.721Z,0.00
2018-10-01T00:38:46.700Z,0.00
2018-10-01T00:39:46.718Z,0.00
2018-10-01T00:40:46.682Z,0.00
2018-10-01T00:41:46.668Z,0.00
2018-10-01T00:42:46.657Z,0.00
2018-10-01T00:43:46.643Z,0.00
2018-10-01T00:44:46.654Z,0.00
2018-10-01T00:45:46.624Z,0.00
2018-10-01T00:46:46.612Z,0.00
2018-10-01T00:47:46.591Z,0.00
2018-10-01T00:48:46.590Z,0.00
2018-10-01T00:49:46.589Z,0.00
2018-10-01T00:50:46.555Z,0.00
2018-10-01T00:51:46.552Z,0.00
2018-10-01T00:52:46.538Z,0.00
2018-10-01T00:53:46.529Z,0.00
2018-10-01T00:54:46.538Z,0.00
2018-10-01T00:55:46.504Z,0.00
2018-10-01T00:56:46.486Z,0.00
2018-10-01T00:57:46.476Z,0.00
2018-10-01T00:58:46.462Z,0.00
2018-10-01T00:59:46.476Z,0.00
2018-10-01T01:00:46.443Z,0.00
2018-10-01T01:01:46.422Z,0.00
2018-10-01T01:02:46.421Z,0.00
2018-10-01T01:03:46.402Z,0.00
2018-10-01T01:04:46.410Z,0.00
2018-10-01T01:05:46.382Z,0.00
2018-10-01T01:06:46.364Z,0.00
2018-10-01T01:07:46.356Z,0.00
2018-10-01T01:08:46.348Z,0.00
2018-10-01T01:09:46.354Z,0.00
2018-10-01T01:10:46.319Z,0.00
2018-10-01T01:11:46.310Z,0.00
2018-10-01T01:12:46.293Z,0.00
2018-10-01T01:13:46.287Z,0.00
2018-10-01T01:14:46.291Z,0.00
2018-10-01T01:15:46.262Z,0.00
2018-10-01T01:16:46.247Z,0.00
2018-10-01T01:17:46.232Z,0.00
2018-10-01T01:18:46.228Z,0.00
2018-10-01T01:19:46.229Z,0.00
2018-10-01T01:20:46.196Z,0.00
2018-10-01T01:21:46.190Z,0.00
2018-10-01T01:22:46.169Z,0.00
2018-10-01T01:23:46.160Z,0.00
2018-10-01T01:24:46.166Z,0.00
2018-10-01T01:25:46.137Z,0.00
2018-10-01T01:26:46.128Z,0.00
2018-10-01T01:27:46.108Z,0.00
2018-10-01T01:28:46.101Z,0.00
2018-10-01T01:29:46.113Z,0.00
2018-10-01T01:30:46.082Z,0.00
2018-10-01T01:31:46.062Z,0.00
2018-10-01T01:32:46.051Z,0.00
2018-10-01T01:33:46.046Z,0.00
2018-10-01T01:34:46.052Z,0.00
2018-10-01T01:35:46.020Z,0.00
2018-10-01T01:36:46.006Z,0.00
2018-10-01T01:37:46.014Z,0.00
2018-10-01T01:38:45.985Z,0.00
2018-10-01T01:39:45.971Z,0.00
2018-10-01T01:40:45.962Z,0.00
2018-10-01T01:41:45.946Z,0.00
2018-10-01T01:42:45.963Z,0.00
2018-10-01T01:43:45.920Z,0.00
2018-10-01T01:44:45.917Z,0.00
2018-10-01T01:45:45.898Z,0.00
2018-10-01T01:46:45.896Z,0.00
2018-10-01T01:47:45.896Z,0.00
2018-10-01T01:48:45.870Z,0.00
2018-10-01T01:49:45.848Z,0.00
2018-10-01T01:50:45.838Z,0.00
2018-10-01T01:51:45.834Z,0.00
2018-10-01T01:52:45.842Z,0.00
2018-10-01T01:53:45.810Z,0.00
2018-10-01T01:54:45.798Z,0.00
2018-10-01T01:55:45.777Z,0.00
2018-10-01T01:56:45.767Z,0.00
2018-10-01T01:57:45.782Z,0.00
2018-10-01T01:58:45.741Z,0.00
2018-10-01T01:59:45.738Z,0.00
2018-10-01T02:00:45.723Z,0.00
2018-10-01T02:01:45.709Z,0.00
2018-10-01T02:02:45.721Z,0.00
2018-10-01T02:03:45.684Z,0.00
2018-10-01T02:04:45.672Z,0.00
2018-10-01T02:05:45.667Z,0.00
2018-10-01T02:06:45.647Z,0.00
2018-10-01T02:07:45.663Z,0.00
2018-10-01T02:08:45.630Z,0.00
2018-10-01T02:09:45.610Z,0.00
2018-10-01T02:10:45.609Z,0.00
2018-10-01T02:11:45.589Z,0.00
2018-10-01T02:12:45.597Z,0.00
2018-10-01T02:13:45.571Z,0.00
2018-10-01T02:14:45.553Z,0.00
2018-10-01T02:15:45.544Z,0.00
2018-10-01T02:16:45.540Z,0.00
2018-10-01T02:17:45.543Z,0.00
2018-10-01T02:18:45.514Z,0.00
2018-10-01T02:19:45.491Z,0.00
2018-10-01T02:20:45.482Z,0.00
2018-10-01T02:21:45.474Z,0.00
2018-10-01T02:22:45.456Z,0.00
2018-10-01T02:23:45.475Z,0.00
2018-10-01T02:24:45.440Z,0.00
2018-10-01T02:25:45.424Z,0.00
2018-10-01T02:26:45.416Z,0.00
2018-10-01T02:27:45.402Z,0.00
2018-10-01T02:28:45.407Z,0.00
2018-10-01T02:29:45.380Z,0.00
2018-10-01T02:30:45.365Z,0.00
2018-10-01T02:31:45.352Z,0.00
2018-10-01T02:32:45.346Z,0.00
2018-10-01T02:33:45.349Z,0.00
2018-10-01T02:34:45.325Z,0.00
2018-10-01T02:35:45.305Z,0.00
2018-10-01T02:36:45.294Z,0.00
2018-10-01T02:37:45.285Z,0.00
2018-10-01T02:38:45.290Z,0.00
2018-10-01T02:39:45.266Z,0.00
2018-10-01T02:40:45.252Z,0.00
2018-10-01T02:41:45.241Z,0.00
2018-10-01T02:42:45.231Z,0.00
2018-10-01T02:43:45.235Z,0.00
2018-10-01T02:44:45.199Z,0.00
2018-10-01T02:45:45.181Z,0.00
2018-10-01T02:46:45.174Z,0.00
2018-10-01T02:47:45.207Z,0.00
2018-10-01T02:48:45.176Z,0.00
2018-10-01T02:49:45.139Z,0.00
2018-10-01T02:50:45.131Z,0.00
2018-10-01T02:51:45.115Z,0.00
2018-10-01T02:52:45.101Z,0.00
2018-10-01T02:53:45.117Z,0.00
2018-10-01T02:54:45.079Z,0.00
2018-10-01T02:55:45.069Z,0.00
2018-10-01T02:56:45.061Z,0.00
2018-10-01T02:57:45.039Z,0.00
2018-10-01T02:58:45.050Z,0.00
2018-10-01T02:59:45.018Z,0.00
2018-10-01T03:00:45.008Z,0.00
2018-10-01T03:01:44.992Z,0.00
2018-10-01T03:02:44.981Z,0.00
2018-10-01T03:03:44.998Z,0.00
2018-10-01T03:04:44.964Z,0.00
2018-10-01T03:05:44.951Z,0.00
2018-10-01T03:06:44.934Z,0.00
2018-10-01T03:07:44.929Z,0.00
2018-10-01T03:08:44.937Z,0.00
2018-10-01T03:09:44.903Z,0.00
2018-10-01T03:10:44.892Z,0.00
2018-10-01T03:11:44.876Z,0.00
2018-10-01T03:12:44.872Z,0.00
2018-10-01T03:13:44.876Z,0.00
2018-10-01T03:14:44.842Z,0.00
2018-10-01T03:15:44.852Z,0.00
2018-10-01T03:16:44.828Z,0.00
2018-10-01T03:17:44.806Z,0.00
2018-10-01T03:18:44.817Z,0.00
2018-10-01T03:19:44.791Z,0.00
2018-10-01T03:20:44.779Z,0.00
2018-10-01T03:21:44.769Z,0.00
2018-10-01T03:22:44.749Z,0.00
2018-10-01T03:23:44.785Z,0.00
2018-10-01T03:24:44.727Z,0.00
2018-10-01T03:25:44.723Z,0.00
2018-10-01T03:26:44.713Z,0.00
2018-10-01T03:27:44.694Z,0.00
2018-10-01T03:28:44.689Z,0.00
2018-10-01T03:29:44.690Z,0.00
2018-10-01T03:30:44.666Z,0.00
2018-10-01T03:31:44.650Z,0.00
2018-10-01T03:32:44.634Z,0.00
2018-10-01T03:33:44.627Z,0.00
2018-10-01T03:34:44.637Z,0.00
2018-10-01T03:35:44.605Z,0.00
2018-10-01T03:36:44.598Z,0.00
2018-10-01T03:37:44.578Z,0.00
2018-10-01T03:38:44.570Z,0.00
2018-10-01T03:39:44.583Z,0.00
2018-10-01T03:40:44.548Z,0.00
2018-10-01T03:41:44.539Z,0.00
2018-10-01T03:42:44.528Z,0.00
2018-10-01T03:43:44.512Z,0.00
2018-10-01T03:44:44.530Z,0.00
2018-10-01T03:45:44.489Z,0.00
2018-10-01T03:46:44.486Z,0.00
2018-10-01T03:47:44.465Z,0.00
2018-10-01T03:48:44.457Z,0.00
2018-10-01T03:49:44.463Z,0.00
2018-10-01T03:50:44.433Z,0.00
2018-10-01T03:51:44.422Z,0.00
2018-10-01T03:52:44.414Z,0.00
2018-10-01T03:53:44.400Z,0.00
2018-10-01T03:54:44.407Z,0.00
2018-10-01T03:55:44.383Z,0.00
2018-10-01T03:56:44.369Z,0.00
2018-10-01T03:57:44.356Z,0.00
2018-10-01T03:58:44.350Z,0.00
2018-10-01T03:59:44.351Z,0.00
2018-10-01T04:00:44.319Z,0.00
2018-10-01T04:01:44.312Z,0.00
2018-10-01T04:02:44.294Z,0.00
2018-10-01T04:03:44.290Z,0.00
2018-10-01T04:04:44.294Z,0.00
2018-10-01T04:05:44.269Z,0.00
2018-10-01T04:06:44.251Z,0.00
2018-10-01T04:07:44.242Z,0.00
2018-10-01T04:08:44.274Z,0.00
2018-10-01T04:09:44.242Z,0.00
2018-10-01T04:10:44.210Z,0.00
2018-10-01T04:11:44.200Z,0.00
2018-10-01T04:12:44.185Z,0.00
2018-10-01T04:13:44.173Z,0.00
2018-10-01T04:14:44.183Z,0.00
2018-10-01T04:15:44.148Z,0.00
2018-10-01T04:16:44.139Z,0.00
2018-10-01T04:17:44.126Z,0.00
2018-10-01T04:18:44.113Z,0.00
2018-10-01T04:19:44.119Z,0.00
2018-10-01T04:20:44.088Z,0.00
2018-10-01T04:21:44.073Z,0.00
2018-10-01T04:22:44.093Z,0.00
2018-10-01T04:23:44.058Z,0.00
2018-10-01T04:24:44.068Z,0.00
2018-10-01T04:25:44.031Z,0.00
2018-10-01T04:26:44.022Z,0.00
2018-10-01T04:27:44.008Z,0.00
2018-10-01T04:28:43.998Z,0.00
2018-10-01T04:29:44.007Z,0.00
2018-10-01T04:30:43.972Z,0.00
2018-10-01T04:31:43.966Z,12.00
2018-10-01T04:32:43.950Z,0.00
2018-10-01T04:33:43.941Z,0.00
2018-10-01T04:34:43.952Z,0.00
2018-10-01T04:35:43.916Z,0.00
2018-10-01T04:36:43.902Z,0.00
2018-10-01T04:37:43.899Z,0.00
2018-10-01T04:38:43.882Z,0.00
2018-10-01T04:39:43.895Z,0.00
2018-10-01T04:40:43.868Z,0.00
2018-10-01T04:41:43.843Z,0.00
2018-10-01T04:42:43.841Z,0.00
2018-10-01T04:43:43.821Z,0.00
2018-10-01T04:44:43.836Z,0.00
2018-10-01T04:45:43.803Z,0.00
2018-10-01T04:46:43.843Z,0.00
2018-10-01T04:47:43.784Z,0.00
2018-10-01T04:48:43.769Z,0.00
2018-10-01T04:49:43.777Z,0.00
2018-10-01T04:50:43.745Z,0.00
2018-10-01T04:51:43.729Z,0.00
2018-10-01T04:52:43.719Z,0.00
2018-10-01T04:53:43.709Z,0.00
2018-10-01T04:54:43.714Z,0.00
2018-10-01T04:55:43.688Z,0.00
2018-10-01T04:56:43.675Z,0.00
2018-10-01T04:57:43.658Z,4.00
2018-10-01T04:58:43.652Z,4.00
2018-10-01T04:59:45.371Z,0.00
2018-10-01T05:00:43.621Z,4.00
2018-10-01T05:01:43.786Z,4.00
2018-10-01T05:02:43.601Z,4.00
2018-10-01T05:03:43.591Z,4.00
2018-10-01T05:04:43.605Z,4.00
2018-10-01T05:05:43.560Z,8.00
2018-10-01T05:06:43.556Z,8.00
2018-10-01T05:07:43.540Z,12.00
2018-10-01T05:08:43.526Z,12.00
2018-10-01T05:09:43.546Z,12.00
2018-10-01T05:10:43.506Z,16.00
2018-10-01T05:11:43.497Z,16.00
2018-10-01T05:12:43.482Z,20.00
2018-10-01T05:13:43.472Z,24.00
2018-10-01T05:14:43.504Z,24.00
2018-10-01T05:15:43.445Z,32.00
2018-10-01T05:16:43.435Z,36.00
2018-10-01T05:17:43.426Z,40.00
2018-10-01T05:18:43.412Z,48.00
2018-10-01T05:19:43.421Z,56.00
2018-10-01T05:20:43.383Z,60.00
2018-10-01T05:21:43.382Z,72.00
2018-10-01T05:22:43.371Z,76.00
2018-10-01T05:23:43.346Z,80.00
2018-10-01T05:24:43.366Z,80.00
2018-10-01T05:25:43.325Z,76.00
2018-10-01T05:26:43.311Z,80.00
2018-10-01T05:27:43.308Z,88.00
2018-10-01T05:28:43.294Z,96.00
2018-10-01T05:29:43.306Z,112.00
2018-10-01T05:30:43.269Z,116.00
2018-10-01T05:31:43.255Z,140.00
2018-10-01T05:32:43.244Z,168.00
2018-10-01T05:33:43.230Z,196.00
2018-10-01T05:34:43.245Z,228.00
2018-10-01T05:35:43.202Z,268.00
2018-10-01T05:36:43.199Z,312.00
2018-10-01T05:37:43.182Z,352.00
2018-10-01T05:38:43.172Z,392.00
2018-10-01T05:39:43.179Z,436.00
2018-10-01T05:40:43.143Z,488.00
2018-10-01T05:41:43.140Z,548.00
2018-10-01T05:42:43.122Z,620.00
2018-10-01T05:43:43.115Z,708.00
2018-10-01T05:44:43.126Z,804.00
2018-10-01T05:45:43.083Z,880.00
2018-10-01T05:46:43.081Z,948.00
2018-10-01T05:47:43.060Z,980.00
2018-10-01T05:48:43.052Z,1008.00
2018-10-01T05:49:43.064Z,1024.00
2018-10-01T05:50:43.024Z,1040.00
2018-10-01T05:51:43.024Z,1056.00
2018-10-01T05:52:43.008Z,1084.00
2018-10-01T05:53:42.992Z,1112.00
2018-10-01T05:54:43.007Z,1156.00
2018-10-01T05:55:42.968Z,1188.00
2018-10-01T05:56:42.959Z,1196.00
2018-10-01T05:57:42.989Z,1180.00
2018-10-01T05:58:42.929Z,1152.00
2018-10-01T05:59:42.948Z,1148.00
2018-10-01T06:00:42.916Z,1160.00
2018-10-01T06:01:42.897Z,1180.00
2018-10-01T06:02:42.882Z,1212.00
2018-10-01T06:03:42.879Z,1256.00
2018-10-01T06:04:42.933Z,1292.00
2018-10-01T06:05:42.848Z,1408.00
2018-10-01T06:06:42.842Z,1488.00
2018-10-01T06:07:42.821Z,1644.00
2018-10-01T06:08:42.813Z,1796.00
2018-10-01T06:09:42.825Z,1968.00
2018-10-01T06:10:42.791Z,2296.00
2018-10-01T06:11:42.784Z,2356.00
2018-10-01T06:12:42.761Z,2256.00
2018-10-01T06:13:42.758Z,2388.00
2018-10-01T06:14:42.767Z,2380.00
2018-10-01T06:15:42.729Z,2336.00
2018-10-01T06:16:42.716Z,2320.00
2018-10-01T06:17:42.705Z,2296.00
2018-10-01T06:18:42.691Z,2272.00
2018-10-01T06:19:42.702Z,2164.00
2018-10-01T06:20:42.666Z,2092.00
2018-10-01T06:21:42.656Z,2040.00
2018-10-01T06:22:42.639Z,2068.00
2018-10-01T06:23:42.636Z,2152.00
2018-10-01T06:24:42.637Z,2276.00
2018-10-01T06:25:42.611Z,2336.00
2018-10-01T06:26:42.599Z,2388.00
2018-10-01T06:27:42.579Z,2460.00
2018-10-01T06:28:42.576Z,2588.00
2018-10-01T06:29:42.578Z,2836.00
2018-10-01T06:30:42.543Z,3212.00
2018-10-01T06:31:42.543Z,3636.00
2018-10-01T06:32:42.525Z,4044.00
2018-10-01T06:33:42.511Z,4356.00
2018-10-01T06:34:42.519Z,4524.00
2018-10-01T06:35:42.495Z,4864.00
2018-10-01T06:36:42.474Z,5104.00
2018-10-01T06:37:42.470Z,5316.00
2018-10-01T06:38:42.452Z,5708.00
2018-10-01T06:39:42.467Z,5596.00
2018-10-01T06:40:42.431Z,5268.00
2018-10-01T06:41:42.483Z,4872.00
2018-10-01T06:42:42.406Z,4552.00
2018-10-01T06:43:42.396Z,4424.00
2018-10-01T06:44:42.404Z,4344.00
2018-10-01T06:45:42.367Z,4420.00
2018-10-01T06:46:42.361Z,4676.00
2018-10-01T06:47:42.353Z,5032.00
2018-10-01T06:48:42.341Z,4736.00
2018-10-01T06:49:42.345Z,4632.00
2018-10-01T06:50:42.323Z,4620.00
2018-10-01T06:51:42.305Z,4964.00
2018-10-01T06:52:42.286Z,6360.00
2018-10-01T06:53:42.281Z,12624.00
2018-10-01T06:54:42.294Z,27712.00
2018-10-01T06:55:42.250Z,27712.00
2018-10-01T06:56:42.248Z,27840.00
2018-10-01T06:57:42.227Z,22208.00
2018-10-01T06:58:42.214Z,23552.00
2018-10-01T06:59:42.233Z,26400.00
2018-10-01T07:00:42.190Z,19264.00
2018-10-01T07:01:42.182Z,16544.00
2018-10-01T07:02:42.178Z,21216.00
2018-10-01T07:03:42.165Z,22816.00
2018-10-01T07:04:42.178Z,17088.00
2018-10-01T07:05:42.211Z,26720.00
2018-10-01T07:06:42.130Z,30976.00
2018-10-01T07:07:42.114Z,37600.00
2018-10-01T07:08:42.106Z,39200.00
2018-10-01T07:09:42.108Z,40160.00
2018-10-01T07:10:42.074Z,40352.00
2018-10-01T07:11:42.133Z,43136.00
2018-10-01T07:12:42.049Z,41696.00
2018-10-01T07:13:42.052Z,40736.00
2018-10-01T07:14:42.059Z,48832.00
2018-10-01T07:15:42.021Z,52096.00
2018-10-01T07:16:42.008Z,51136.00
2018-10-01T07:17:41.993Z,23072.00
2018-10-01T07:18:41.986Z,10324.00
2018-10-01T07:19:41.994Z,8564.00
2018-10-01T07:20:41.961Z,8944.00
2018-10-01T07:21:41.947Z,9264.00
2018-10-01T07:22:42.037Z,9660.00
2018-10-01T07:23:41.929Z,10380.00
2018-10-01T07:24:41.910Z,11572.00
2018-10-01T07:25:41.928Z,65024.00
2018-10-01T07:26:41.894Z,16356.00
2018-10-01T07:27:41.874Z,84128.00
2018-10-01T07:28:41.870Z,14336.00
2018-10-01T07:29:41.853Z,57376.00
2018-10-01T07:30:41.871Z,51552.00
2018-10-01T07:31:41.836Z,45280.00
2018-10-01T07:32:41.816Z,40448.00
2018-10-01T07:33:41.807Z,34880.00
2018-10-01T07:34:41.801Z,39264.00
2018-10-01T07:35:41.801Z,40768.00
2018-10-01T07:36:41.778Z,39584.00
2018-10-01T07:37:41.757Z,16700.00
2018-10-01T07:38:41.748Z,18432.00
2018-10-01T07:39:41.740Z,25792.00
2018-10-01T07:40:41.754Z,43136.00
2018-10-01T07:41:41.710Z,43456.00
2018-10-01T07:42:41.710Z,44256.00
2018-10-01T07:43:41.690Z,45088.00
2018-10-01T07:44:41.679Z,38688.00
2018-10-01T07:45:41.694Z,23648.00
2018-10-01T07:46:41.655Z,24352.00
2018-10-01T07:47:41.646Z,21216.00
2018-10-01T07:48:41.630Z,22240.00
2018-10-01T07:49:41.617Z,19424.00
2018-10-01T07:50:41.661Z,25664.00
2018-10-01T07:51:41.600Z,44608.00
2018-10-01T07:52:41.587Z,17504.00
2018-10-01T07:53:41.573Z,18208.00
2018-10-01T07:54:41.558Z,38208.00
2018-10-01T07:55:41.577Z,39712.00
2018-10-01T07:56:41.534Z,26816.00
2018-10-01T07:57:41.530Z,33248.00
2018-10-01T07:58:41.519Z,24352.00
2018-10-01T07:59:41.582Z,22176.00
2018-10-01T08:00:41.520Z,17696.00
2018-10-01T08:01:41.476Z,18720.00
2018-10-01T08:02:41.545Z,20192.00
2018-10-01T08:03:41.462Z,45376.00
2018-10-01T08:04:41.443Z,53856.00
2018-10-01T08:05:41.455Z,56320.00
2018-10-01T08:06:41.432Z,57248.00
2018-10-01T08:07:41.416Z,56480.00
2018-10-01T08:08:41.410Z,39040.00
2018-10-01T08:09:41.384Z,28096.00
2018-10-01T08:10:41.400Z,22592.00
2018-10-01T08:11:41.369Z,21568.00
2018-10-01T08:12:41.352Z,21216.00
2018-10-01T08:13:41.348Z,24576.00
2018-10-01T08:14:41.333Z,32576.00
2018-10-01T08:15:41.381Z,43264.00
2018-10-01T08:16:41.315Z,33728.00
2018-10-01T08:17:41.296Z,26208.00
2018-10-01T08:18:41.292Z,42208.00
2018-10-01T08:19:41.277Z,45088.00
2018-10-01T08:20:41.360Z,41856.00
2018-10-01T08:21:41.247Z,32608.00
2018-10-01T08:22:41.243Z,40544.00
2018-10-01T08:23:41.351Z,43904.00
2018-10-01T08:24:41.219Z,34944.00
2018-10-01T08:25:41.236Z,23712.00
2018-10-01T08:26:41.330Z,23168.00
2018-10-01T08:27:41.182Z,41728.00
2018-10-01T08:28:41.169Z,51264.00
2018-10-01T08:29:41.242Z,70496.00
2018-10-01T08:30:41.171Z,18400.00
2018-10-01T08:31:41.137Z,83136.00
2018-10-01T08:32:41.173Z,83360.00
2018-10-01T08:33:41.109Z,83328.00
2018-10-01T08:34:41.104Z,88416.00
2018-10-01T08:35:41.118Z,86976.00
2018-10-01T08:36:41.081Z,88576.00
2018-10-01T08:37:41.065Z,86752.00
2018-10-01T08:38:41.163Z,88096.00
2018-10-01T08:39:41.041Z,88384.00
2018-10-01T08:40:41.061Z,17268.00
2018-10-01T08:41:41.027Z,18368.00
2018-10-01T08:42:41.013Z,95648.00
2018-10-01T08:43:40.995Z,47904.00
2018-10-01T08:44:40.985Z,96448.00
2018-10-01T08:45:41.010Z,92128.00
2018-10-01T08:46:40.964Z,70368.00
2018-10-01T08:47:41.001Z,90848.00
2018-10-01T08:48:40.945Z,94048.00
2018-10-01T08:49:40.929Z,19424.00
2018-10-01T08:50:40.946Z,90720.00
2018-10-01T08:51:40.960Z,98496.00
2018-10-01T08:52:40.895Z,35264.00
2018-10-01T08:53:40.887Z,15976.00
2018-10-01T08:54:40.874Z,30240.00
2018-10-01T08:55:40.889Z,36032.00
2018-10-01T08:56:40.847Z,19360.00
2018-10-01T08:57:40.876Z,18976.00
2018-10-01T08:58:40.823Z,105600.00
2018-10-01T08:59:40.821Z,68544.00
2018-10-01T09:00:40.823Z,35264.00
2018-10-01T09:01:40.798Z,30688.00
2018-10-01T09:02:40.834Z,67808.00
2018-10-01T09:03:40.771Z,25536.00
2018-10-01T09:04:40.758Z,108224.00
2018-10-01T09:05:40.780Z,89440.00
2018-10-01T09:06:40.742Z,21184.00
2018-10-01T09:07:40.724Z,20384.00
2018-10-01T09:08:40.715Z,23072.00
2018-10-01T09:09:40.701Z,35808.00
2018-10-01T09:10:40.695Z,103680.00
2018-10-01T09:11:40.709Z,111968.00
2018-10-01T09:12:40.672Z,25888.00
2018-10-01T09:13:40.651Z,32320.00
2018-10-01T09:14:40.711Z,32960.00
2018-10-01T09:15:40.636Z,36768.00
2018-10-01T09:16:40.642Z,27680.00
2018-10-01T09:17:40.610Z,52320.00
2018-10-01T09:18:40.593Z,21632.00
2018-10-01T09:19:40.590Z,23936.00
2018-10-01T09:20:40.630Z,25504.00
2018-10-01T09:21:40.647Z,29184.00
2018-10-01T09:22:40.554Z,49696.00
2018-10-01T09:23:40.533Z,13252.00
2018-10-01T09:24:40.526Z,10756.00
2018-10-01T09:25:40.520Z,10404.00
2018-10-01T09:26:40.555Z,10948.00
2018-10-01T09:27:40.497Z,11636.00
2018-10-01T09:28:40.482Z,12596.00
2018-10-01T09:29:40.529Z,12792.00
2018-10-01T09:30:40.458Z,11792.00
2018-10-01T09:31:40.468Z,12420.00
2018-10-01T09:32:40.465Z,13264.00
2018-10-01T09:33:40.426Z,9212.00
2018-10-01T09:34:40.408Z,8052.00
2018-10-01T09:35:40.475Z,7352.00
2018-10-01T09:36:40.415Z,7724.00
2018-10-01T09:37:40.370Z,8296.00
2018-10-01T09:38:40.427Z,9032.00
2018-10-01T09:39:40.353Z,12472.00
2018-10-01T09:40:40.411Z,101216.00
2018-10-01T09:41:40.356Z,103712.00
2018-10-01T09:42:40.316Z,107264.00
2018-10-01T09:43:40.306Z,108288.00
2018-10-01T09:44:40.332Z,109568.00
2018-10-01T09:45:40.276Z,114048.00
2018-10-01T09:46:40.291Z,113536.00
2018-10-01T09:47:40.258Z,57536.00
2018-10-01T09:48:40.250Z,19488.00
2018-10-01T09:49:40.230Z,21472.00
2018-10-01T09:50:40.225Z,26976.00
2018-10-01T09:51:40.230Z,25184.00
2018-10-01T09:52:40.195Z,18624.00
2018-10-01T09:53:40.215Z,13484.00
2018-10-01T09:54:40.179Z,9008.00
2018-10-01T09:55:40.160Z,7896.00
2018-10-01T09:56:40.266Z,7660.00
2018-10-01T09:57:40.146Z,8184.00
2018-10-01T09:58:40.188Z,10240.00
2018-10-01T09:59:40.122Z,13644.00
2018-10-01T10:00:40.104Z,17308.00
2018-10-01T10:01:40.120Z,113728.00
2018-10-01T10:02:40.189Z,118336.00
2018-10-01T10:03:40.068Z,32352.00
2018-10-01T10:04:40.257Z,32992.00
2018-10-01T10:05:40.052Z,108320.00
2018-10-01T10:06:40.062Z,47456.00
2018-10-01T10:07:40.020Z,85408.00
2018-10-01T10:08:40.100Z,122240.00
2018-10-01T10:09:40.002Z,31552.00
2018-10-01T10:10:39.991Z,23648.00
2018-10-01T10:11:39.997Z,23104.00
2018-10-01T10:12:39.966Z,22944.00
2018-10-01T10:13:39.954Z,22560.00
2018-10-01T10:14:40.033Z,18816.00
2018-10-01T10:15:39.933Z,13388.00
2018-10-01T10:16:40.085Z,8740.00
2018-10-01T10:17:39.904Z,6392.00
2018-10-01T10:18:39.907Z,5560.00
2018-10-01T10:19:39.879Z,5740.00
2018-10-01T10:20:39.879Z,6220.00
2018-10-01T10:21:39.879Z,7364.00
2018-10-01T10:22:39.852Z,9716.00
2018-10-01T10:23:39.838Z,94784.00
2018-10-01T10:24:39.827Z,111328.00
2018-10-01T10:25:39.813Z,111840.00
2018-10-01T10:26:39.831Z,117312.00
2018-10-01T10:27:39.788Z,120064.00
2018-10-01T10:28:39.780Z,118976.00
2018-10-01T10:29:39.771Z,94176.00
2018-10-01T10:30:39.754Z,123456.00
2018-10-01T10:31:39.772Z,119104.00
2018-10-01T10:32:39.821Z,117472.00
2018-10-01T10:33:39.722Z,116320.00
2018-10-01T10:34:39.714Z,42688.00
2018-10-01T10:35:39.701Z,31328.00
2018-10-01T10:36:39.706Z,84640.00
2018-10-01T10:37:39.682Z,127744.00
2018-10-01T10:38:39.712Z,126880.00
2018-10-01T10:39:39.725Z,126048.00
2018-10-01T10:40:39.649Z,125792.00
2018-10-01T10:41:39.688Z,130176.00
2018-10-01T10:42:39.622Z,36544.00
2018-10-01T10:43:39.610Z,76224.00
2018-10-01T10:44:39.598Z,67200.00
2018-10-01T10:45:39.591Z,53312.00
2018-10-01T10:46:39.598Z,31712.00
2018-10-01T10:47:39.566Z,22272.00
2018-10-01T10:48:39.560Z,21248.00
2018-10-01T10:49:39.538Z,21600.00
2018-10-01T10:50:39.553Z,20416.00
2018-10-01T10:51:39.538Z,20800.00
2018-10-01T10:52:39.510Z,20000.00
2018-10-01T10:53:39.498Z,19616.00
2018-10-01T10:54:39.482Z,17088.00
2018-10-01T10:55:39.477Z,15308.00
2018-10-01T10:56:39.513Z,16004.00
2018-10-01T10:57:39.450Z,16288.00
2018-10-01T10:58:39.436Z,18496.00
2018-10-01T10:59:39.427Z,9828.00
2018-10-01T11:00:39.431Z,11112.00
2018-10-01T11:01:39.421Z,12688.00
2018-10-01T11:02:39.488Z,14748.00
2018-10-01T11:03:39.381Z,18336.00
2018-10-01T11:04:39.364Z,23296.00
2018-10-01T11:05:39.362Z,33952.00
2018-10-01T11:06:39.364Z,28800.00
2018-10-01T11:07:39.338Z,27456.00
2018-10-01T11:08:39.395Z,36000.00
2018-10-01T11:09:39.308Z,135840.00
2018-10-01T11:10:39.300Z,131264.00
2018-10-01T11:11:39.304Z,31392.00
2018-10-01T11:12:39.280Z,27840.00
2018-10-01T11:13:39.266Z,31680.00
2018-10-01T11:14:39.376Z,32000.00
2018-10-01T11:15:39.240Z,32768.00
2018-10-01T11:16:39.253Z,139424.00
2018-10-01T11:17:39.236Z,139360.00
2018-10-01T11:18:39.391Z,61856.00
2018-10-01T11:19:39.300Z,39584.00
2018-10-01T11:20:39.226Z,72672.00
2018-10-01T11:21:39.400Z,20192.00
2018-10-01T11:22:39.162Z,12292.00
2018-10-01T11:23:39.150Z,9832.00
2018-10-01T11:24:39.134Z,8792.00
2018-10-01T11:25:39.202Z,7992.00
2018-10-01T11:26:39.139Z,7644.00
2018-10-01T11:27:39.163Z,7140.00
2018-10-01T11:28:39.091Z,6192.00
2018-10-01T11:29:39.076Z,5324.00
2018-10-01T11:30:39.064Z,4640.00
2018-10-01T11:31:39.116Z,4252.00
2018-10-01T11:32:39.053Z,4332.00
2018-10-01T11:33:39.057Z,4588.00
2018-10-01T11:34:39.275Z,4980.00
2018-10-01T11:35:39.012Z,4924.00
2018-10-01T11:36:39.020Z,4508.00
2018-10-01T11:37:38.982Z,3952.00
2018-10-01T11:38:38.968Z,3860.00
2018-10-01T11:39:39.006Z,4292.00
2018-10-01T11:40:38.950Z,5212.00
2018-10-01T11:41:38.959Z,6420.00
2018-10-01T11:42:38.928Z,7396.00
2018-10-01T11:43:38.909Z,8060.00
2018-10-01T11:44:38.899Z,8276.00
2018-10-01T11:45:38.957Z,8192.00
2018-10-01T11:46:38.901Z,8300.00
2018-10-01T11:47:38.864Z,9176.00
2018-10-01T11:48:38.850Z,11016.00
2018-10-01T11:49:38.847Z,13680.00
2018-10-01T11:50:38.838Z,17264.00
2018-10-01T11:51:38.869Z,20960.00
2018-10-01T11:52:38.813Z,22944.00
2018-10-01T11:53:38.792Z,21664.00
2018-10-01T11:54:38.785Z,19392.00
2018-10-01T11:55:38.775Z,15348.00
2018-10-01T11:56:38.790Z,12148.00
2018-10-01T11:57:38.872Z,10548.00
2018-10-01T11:58:38.740Z,10196.00
2018-10-01T11:59:38.724Z,9712.00
2018-10-01T12:00:38.709Z,9240.00
2018-10-01T12:01:38.731Z,8688.00
2018-10-01T12:02:38.688Z,9924.00
2018-10-01T12:03:38.768Z,13928.00
2018-10-01T12:04:38.671Z,16012.00
2018-10-01T12:05:38.653Z,17128.00
2018-10-01T12:06:38.668Z,12652.00
2018-10-01T12:07:38.628Z,10768.00
2018-10-01T12:08:38.618Z,10548.00
2018-10-01T12:09:38.715Z,11716.00
2018-10-01T12:10:38.652Z,15504.00
2018-10-01T12:11:38.610Z,17172.00
2018-10-01T12:12:38.574Z,15508.00
2018-10-01T12:13:38.558Z,13104.00
2018-10-01T12:14:38.552Z,11220.00
2018-10-01T12:15:38.619Z,10780.00
2018-10-01T12:16:38.545Z,11076.00
2018-10-01T12:17:38.517Z,11676.00
2018-10-01T12:18:38.498Z,12848.00
2018-10-01T12:19:38.495Z,15192.00
2018-10-01T12:20:38.473Z,19456.00
2018-10-01T12:21:38.531Z,24864.00
2018-10-01T12:22:38.458Z,28032.00
2018-10-01T12:23:38.440Z,31680.00
2018-10-01T12:24:38.435Z,35488.00
2018-10-01T12:25:38.414Z,36992.00
2018-10-01T12:26:38.504Z,40320.00